Terminal Aerodrome Forecast
Issued by NWS Charleston, WV

Current Version | Previous Version | Text Only | Print | Product List | Glossary Off
Versions: 1 2 3 4 5 6 7 8 9 10 11 12 13 14 15 16 17 18 19 20 21 22 23 24 25 26

006
FTUS41 KRLX 060300 AAA
TAFHTS
TAF AMD
KHTS 060300Z 0603/0624 05007KT P6SM BKN150
     FM061100 09006KT 4SM -RA OVC028
     FM061300 10006KT 3SM -RA OVC009
     FM061700 15006KT 1 1/2SM -RA OVC006
     FM062000 18005KT 2SM -RA OVC008
     FM062200 21006KT 4SM -RA OVC010=

USA.gov is the U.S. government's official web portal to all federal, state and local government web resources and services.